createdAt,value
2019-03-06T00:00:49.133Z,8.40
2019-03-06T00:03:18.289Z,8.40
2019-03-06T00:05:47.198Z,8.40
2019-03-06T00:08:16.432Z,8.50
2019-03-06T00:10:45.617Z,8.50
2019-03-06T00:13:14.429Z,8.40
2019-03-06T00:15:43.290Z,8.50
2019-03-06T00:18:12.145Z,8.50
2019-03-06T00:20:41.057Z,8.50
2019-03-06T00:23:10.147Z,8.50
2019-03-06T00:25:38.994Z,8.50
2019-03-06T00:28:07.940Z,8.50
2019-03-06T00:30:36.890Z,8.50
2019-03-06T00:33:05.733Z,8.50
2019-03-06T00:35:39.189Z,8.50
2019-03-06T00:38:08.108Z,5.90
2019-03-06T00:40:50.718Z,8.70
2019-03-06T00:43:19.782Z,8.70
2019-03-06T00:45:48.638Z,8.60
2019-03-06T00:48:17.476Z,8.60
2019-03-06T00:50:46.545Z,8.50
2019-03-06T00:53:15.401Z,8.40
2019-03-06T00:55:44.313Z,8.40
2019-03-06T00:58:13.265Z,8.40
2019-03-06T01:00:42.183Z,8.40
2019-03-06T01:03:11.660Z,8.40
2019-03-06T01:05:40.644Z,8.40
2019-03-06T01:08:10.729Z,8.40
2019-03-06T01:10:39.738Z,8.40
2019-03-06T01:13:08.688Z,8.40
2019-03-06T01:15:37.634Z,8.30
2019-03-06T01:18:06.469Z,8.20
2019-03-06T01:20:35.426Z,8.60
2019-03-06T01:23:04.543Z,8.30
2019-03-06T01:25:33.452Z,8.30
2019-03-06T01:28:02.343Z,8.30
2019-03-06T01:30:31.202Z,8.30
2019-03-06T01:33:04.599Z,8.30
2019-03-06T01:35:44.320Z,8.30
2019-03-06T01:38:17.418Z,8.30
2019-03-06T01:40:57.154Z,8.20
2019-03-06T01:43:30.370Z,8.20
2019-03-06T01:45:59.432Z,8.30
2019-03-06T01:48:28.383Z,8.30
2019-03-06T01:50:57.228Z,8.30
2019-03-06T01:53:26.081Z,8.40
2019-03-06T01:55:54.958Z,8.40
2019-03-06T01:58:24.102Z,8.40
2019-03-06T02:00:54.486Z,8.40
2019-03-06T02:03:23.512Z,8.40
2019-03-06T02:05:52.432Z,8.50
2019-03-06T02:08:21.355Z,8.60
2019-03-06T02:10:50.507Z,8.60
2019-03-06T02:13:23.671Z,8.60
2019-03-06T02:15:52.526Z,8.60
2019-03-06T02:18:21.390Z,8.60
2019-03-06T02:20:50.265Z,8.70
2019-03-06T02:23:19.181Z,8.70
2019-03-06T02:25:48.160Z,8.70
2019-03-06T02:28:16.994Z,8.70
2019-03-06T02:30:45.905Z,8.70
2019-03-06T02:33:14.892Z,8.60
2019-03-06T02:35:43.726Z,8.60
2019-03-06T02:38:12.570Z,8.60
2019-03-06T02:40:41.507Z,8.60
2019-03-06T02:43:10.372Z,8.70
2019-03-06T02:45:39.387Z,8.70
2019-03-06T02:48:08.491Z,8.70
2019-03-06T02:50:37.381Z,8.70
2019-03-06T02:53:06.233Z,8.80
2019-03-06T02:55:35.103Z,8.70
2019-03-06T02:58:24.006Z,8.70
2019-03-06T03:00:57.257Z,8.70
2019-03-06T03:03:27.752Z,8.70
2019-03-06T03:06:04.323Z,8.70
2019-03-06T03:08:33.272Z,8.60
2019-03-06T03:11:02.128Z,8.60
2019-03-06T03:13:31.081Z,8.60
2019-03-06T03:15:59.989Z,8.60
2019-03-06T03:18:28.821Z,8.60
2019-03-06T03:20:57.904Z,8.60
2019-03-06T03:23:26.742Z,8.60
2019-03-06T03:25:55.594Z,8.60
2019-03-06T03:28:24.455Z,8.60
2019-03-06T03:30:53.311Z,8.60
2019-03-06T03:33:22.143Z,8.70
2019-03-06T03:35:51.087Z,8.70
2019-03-06T03:38:19.924Z,8.70
2019-03-06T03:40:48.782Z,8.70
2019-03-06T03:43:17.663Z,8.70
2019-03-06T03:45:46.511Z,8.60
2019-03-06T03:48:15.368Z,8.70
2019-03-06T03:50:44.246Z,8.60
2019-03-06T03:53:13.078Z,8.50
2019-03-06T03:55:41.924Z,8.50
2019-03-06T03:58:10.818Z,5.50
2019-03-06T04:00:39.826Z,8.40
2019-03-06T04:03:08.782Z,8.40
2019-03-06T04:05:37.698Z,8.20
2019-03-06T04:08:06.548Z,8.20
2019-03-06T04:10:35.409Z,8.20
2019-03-06T04:13:04.757Z,8.20
2019-03-06T04:15:33.618Z,8.30
2019-03-06T04:18:02.470Z,8.30
2019-03-06T04:22:59.833Z,8.30
2019-03-06T04:25:28.676Z,8.30
2019-03-06T04:27:57.560Z,8.30
2019-03-06T04:30:26.405Z,8.20
2019-03-06T04:32:55.375Z,8.20
2019-03-06T04:35:24.241Z,8.20
2019-03-06T04:37:53.104Z,8.10
2019-03-06T04:40:21.939Z,8.10
2019-03-06T04:42:50.848Z,8.20
2019-03-06T04:45:19.777Z,8.20
2019-03-06T04:47:48.600Z,8.30
2019-03-06T04:50:17.552Z,8.40
2019-03-06T04:52:46.394Z,8.40
2019-03-06T04:55:15.885Z,8.30
2019-03-06T04:57:44.828Z,8.30
2019-03-06T05:00:18.402Z,8.40
2019-03-06T05:02:47.198Z,8.40
2019-03-06T05:05:16.077Z,8.40
2019-03-06T05:07:44.921Z,8.40
2019-03-06T05:10:14.805Z,8.40
2019-03-06T05:12:43.764Z,8.40
2019-03-06T05:15:17.842Z,8.40
2019-03-06T05:17:54.693Z,8.40
2019-03-06T05:20:23.547Z,8.40
2019-03-06T05:22:52.391Z,8.40
2019-03-06T05:25:21.361Z,8.40
2019-03-06T05:27:50.232Z,8.40
2019-03-06T05:30:21.028Z,8.50
2019-03-06T05:32:55.605Z,8.40
2019-03-06T05:38:13.105Z,8.40
2019-03-06T05:40:41.965Z,8.40
2019-03-06T05:43:10.861Z,8.30
2019-03-06T05:45:41.840Z,8.40
2019-03-06T05:48:10.653Z,8.40
2019-03-06T05:50:39.521Z,8.50
2019-03-06T05:53:08.405Z,8.50
2019-03-06T05:58:05.798Z,8.60
2019-03-06T06:00:34.829Z,8.70
2019-03-06T06:03:03.737Z,8.70
2019-03-06T06:05:32.715Z,8.80
2019-03-06T06:08:01.538Z,8.80
2019-03-06T06:10:30.452Z,8.90
2019-03-06T06:12:59.297Z,8.80
2019-03-06T06:15:28.172Z,8.90
2019-03-06T06:17:57.375Z,8.90
2019-03-06T06:20:26.234Z,8.90
2019-03-06T06:23:12.879Z,8.90
2019-03-06T06:28:29.692Z,9.10
2019-03-06T06:30:58.551Z,9.20
2019-03-06T06:33:27.397Z,9.20
2019-03-06T06:35:56.329Z,9.20
2019-03-06T06:38:25.188Z,9.20
2019-03-06T06:40:54.048Z,9.30
2019-03-06T06:43:22.999Z,9.30
2019-03-06T06:45:52.812Z,9.20
2019-03-06T06:48:23.943Z,9.20
2019-03-06T06:51:20.218Z,9.30
2019-03-06T06:53:52.139Z,9.30
2019-03-06T06:56:58.839Z,9.40
2019-03-06T06:59:39.725Z,9.50
2019-03-06T07:02:48.521Z,9.50
2019-03-06T07:05:31.136Z,9.60
2019-03-06T07:08:01.663Z,9.60
2019-03-06T07:13:37.954Z,9.70
2019-03-06T07:16:14.197Z,9.80
2019-03-06T07:19:00.936Z,9.90
2019-03-06T07:21:34.205Z,10.00
2019-03-06T07:24:04.681Z,10.10
2019-03-06T07:26:40.974Z,10.10
2019-03-06T07:29:11.464Z,10.20
2019-03-06T07:31:50.944Z,10.20
2019-03-06T07:34:23.883Z,12.70
2019-03-06T07:36:54.446Z,10.30
2019-03-06T07:39:25.205Z,10.40
2019-03-06T07:42:13.804Z,10.50
2019-03-06T07:44:52.960Z,10.40
2019-03-06T07:47:29.527Z,10.40
2019-03-06T07:50:00.183Z,10.40
2019-03-06T07:52:30.885Z,10.50
2019-03-06T07:55:17.461Z,10.50
2019-03-06T07:58:22.532Z,10.50
2019-03-06T08:00:51.641Z,10.60
2019-03-06T08:03:20.862Z,10.60
2019-03-06T08:05:49.705Z,10.60
2019-03-06T08:08:18.587Z,10.70
2019-03-06T08:10:47.711Z,10.80
2019-03-06T08:13:18.274Z,10.90
2019-03-06T08:15:51.509Z,11.00
2019-03-06T08:18:25.025Z,11.10
2019-03-06T08:20:58.287Z,11.00
2019-03-06T08:23:31.686Z,11.00
2019-03-06T08:26:00.553Z,11.10
2019-03-06T08:28:29.591Z,11.20
2019-03-06T08:31:05.904Z,11.20
2019-03-06T08:33:34.909Z,11.30
2019-03-06T08:36:03.785Z,11.30
2019-03-06T08:38:32.637Z,11.50
2019-03-06T08:41:04.879Z,11.50
2019-03-06T08:43:32.105Z,11.60
2019-03-06T08:46:05.292Z,11.60
2019-03-06T08:48:44.571Z,12.00
2019-03-06T08:51:15.071Z,12.10
2019-03-06T08:53:45.728Z,12.10
2019-03-06T08:56:16.265Z,12.20
2019-03-06T08:58:58.536Z,12.30
2019-03-06T09:01:36.437Z,12.30
2019-03-06T09:04:24.686Z,12.30
2019-03-06T09:07:11.634Z,12.50
2019-03-06T09:09:42.140Z,12.70
2019-03-06T09:12:15.810Z,12.70
2019-03-06T09:14:52.584Z,12.70
2019-03-06T09:17:23.346Z,12.80
2019-03-06T09:22:38.774Z,12.90
2019-03-06T09:25:10.029Z,13.00
2019-03-06T09:27:40.525Z,13.00
2019-03-06T09:30:19.755Z,13.20
2019-03-06T09:33:02.027Z,13.30
2019-03-06T09:35:50.748Z,13.40
2019-03-06T09:38:26.869Z,13.40
2019-03-06T09:41:03.286Z,13.40
2019-03-06T09:43:49.782Z,13.40
2019-03-06T09:46:20.329Z,13.30
2019-03-06T09:48:50.748Z,13.40
2019-03-06T09:51:33.093Z,13.40
2019-03-06T09:54:06.299Z,13.40
2019-03-06T09:56:52.966Z,13.30
2019-03-06T09:59:23.456Z,13.20
2019-03-06T10:02:09.333Z,13.20
2019-03-06T10:04:42.646Z,13.20
2019-03-06T10:07:12.939Z,13.30
2019-03-06T10:09:43.532Z,13.30
2019-03-06T10:12:30.212Z,13.50
2019-03-06T10:15:15.753Z,13.60
2019-03-06T10:17:46.001Z,13.90
2019-03-06T10:20:25.396Z,14.20
2019-03-06T10:22:54.947Z,14.20
2019-03-06T10:25:30.143Z,14.60
2019-03-06T10:27:54.443Z,15.10
2019-03-06T10:30:23.077Z,15.30
2019-03-06T10:32:52.090Z,15.40
2019-03-06T10:35:20.755Z,15.70
2019-03-06T10:37:49.538Z,15.90
2019-03-06T10:40:18.947Z,17.60
2019-03-06T10:42:47.566Z,16.10
2019-03-06T10:45:18.581Z,16.40
2019-03-06T10:47:47.429Z,16.60
2019-03-06T10:50:26.230Z,16.90
2019-03-06T10:52:49.405Z,17.00
2019-03-06T10:55:19.614Z,17.00
2019-03-06T10:57:48.346Z,17.20
2019-03-06T11:00:21.510Z,17.40
2019-03-06T11:02:50.443Z,17.40
2019-03-06T11:05:24.265Z,17.30
2019-03-06T11:07:53.509Z,17.30
2019-03-06T11:10:24.669Z,17.30
2019-03-06T11:12:53.406Z,17.20
2019-03-06T11:15:22.687Z,17.40
2019-03-06T11:17:51.600Z,17.60
2019-03-06T11:20:23.490Z,18.00
2019-03-06T11:22:52.912Z,18.00
2019-03-06T11:25:22.347Z,18.20
2019-03-06T11:27:51.249Z,18.20
2019-03-06T11:30:28.701Z,18.00
2019-03-06T11:32:57.412Z,18.00
2019-03-06T11:35:26.680Z,18.10
2019-03-06T11:37:55.613Z,18.00
2019-03-06T11:40:24.346Z,18.30
2019-03-06T11:42:52.900Z,18.60
2019-03-06T11:45:21.733Z,18.60
2019-03-06T11:47:50.392Z,18.80
2019-03-06T11:50:19.714Z,18.90
2019-03-06T11:52:48.436Z,19.10
2019-03-06T11:55:17.696Z,19.10
2019-03-06T11:57:46.440Z,19.30
2019-03-06T12:03:04.764Z,20.00
2019-03-06T12:05:35.188Z,20.30
2019-03-06T12:08:06.976Z,20.30
2019-03-06T12:10:35.747Z,20.20
2019-03-06T12:13:07.378Z,20.20
2019-03-06T12:15:36.140Z,20.20
2019-03-06T12:18:05.548Z,20.20
2019-03-06T12:20:34.560Z,20.00
2019-03-06T12:23:03.619Z,20.00
2019-03-06T12:25:32.351Z,19.30
2019-03-06T12:28:01.105Z,19.30
2019-03-06T12:30:29.775Z,18.60
2019-03-06T12:32:58.357Z,18.60
2019-03-06T12:35:26.947Z,18.40
2019-03-06T12:37:55.669Z,18.00
2019-03-06T12:40:26.948Z,17.90
2019-03-06T12:42:55.614Z,17.80
2019-03-06T12:45:24.564Z,17.80
2019-03-06T12:48:01.821Z,17.60
2019-03-06T12:50:35.960Z,17.50
2019-03-06T12:53:04.793Z,17.40
2019-03-06T12:55:33.735Z,17.30
2019-03-06T12:58:02.417Z,17.20
2019-03-06T13:00:33.044Z,17.00
2019-03-06T13:03:01.593Z,17.00
2019-03-06T13:05:30.241Z,16.90
2019-03-06T13:07:58.839Z,16.80
2019-03-06T13:10:27.623Z,16.90
2019-03-06T13:12:56.327Z,17.00
2019-03-06T13:15:46.500Z,17.10
2019-03-06T13:18:15.105Z,17.30
2019-03-06T13:20:43.741Z,17.60
2019-03-06T13:23:12.741Z,17.60
2019-03-06T13:25:41.408Z,17.70
2019-03-06T13:28:10.193Z,17.80
2019-03-06T13:30:58.115Z,18.00
2019-03-06T13:33:33.986Z,18.00
2019-03-06T13:36:02.697Z,18.10
2019-03-06T13:38:31.305Z,18.10
2019-03-06T13:40:59.891Z,17.80
2019-03-06T13:43:28.553Z,17.70
2019-03-06T13:45:57.140Z,17.60
2019-03-06T13:48:25.714Z,17.60
2019-03-06T13:50:55.270Z,17.70
2019-03-06T13:53:23.942Z,17.70
2019-03-06T13:55:52.605Z,17.70
2019-03-06T13:58:21.215Z,17.70
2019-03-06T14:00:49.872Z,17.60
2019-03-06T14:03:18.521Z,17.50
2019-03-06T14:05:47.210Z,17.30
2019-03-06T14:08:16.138Z,17.30
2019-03-06T14:10:44.727Z,17.00
2019-03-06T14:13:13.344Z,17.00
2019-03-06T14:15:41.994Z,16.70
2019-03-06T14:18:12.407Z,16.70
2019-03-06T14:20:41.254Z,16.60
2019-03-06T14:23:10.198Z,16.50
2019-03-06T14:25:38.844Z,16.40
2019-03-06T14:28:07.616Z,16.30
2019-03-06T14:30:48.060Z,16.30
2019-03-06T14:33:16.731Z,16.30
2019-03-06T14:35:45.657Z,16.30
2019-03-06T14:38:14.226Z,16.40
2019-03-06T14:40:43.879Z,16.40
2019-03-06T14:43:12.703Z,16.50
2019-03-06T14:45:41.625Z,16.50
2019-03-06T14:48:10.514Z,16.40
2019-03-06T14:50:39.301Z,16.40
2019-03-06T14:53:08.016Z,16.40
2019-03-06T14:55:37.060Z,16.30
2019-03-06T14:58:26.490Z,16.20
2019-03-06T15:00:55.240Z,16.00
2019-03-06T15:05:52.458Z,15.90
2019-03-06T15:08:21.151Z,15.90
2019-03-06T15:10:49.805Z,13.90
2019-03-06T15:13:18.955Z,15.80
2019-03-06T15:15:47.544Z,15.70
2019-03-06T15:18:16.418Z,15.70
2019-03-06T15:20:45.125Z,15.80
2019-03-06T15:23:13.809Z,15.70
2019-03-06T15:25:42.489Z,15.80
2019-03-06T15:28:11.048Z,15.80
2019-03-06T15:30:40.483Z,16.30
2019-03-06T15:33:09.200Z,16.30
2019-03-06T15:35:37.842Z,16.50
2019-03-06T15:38:07.913Z,16.40
2019-03-06T15:40:38.127Z,16.10
2019-03-06T15:43:08.479Z,16.00
2019-03-06T15:45:37.432Z,15.90
2019-03-06T15:48:06.438Z,15.70
2019-03-06T15:50:35.122Z,15.40
2019-03-06T15:53:03.802Z,15.40
2019-03-06T15:55:32.770Z,15.30
2019-03-06T15:58:01.528Z,15.30
2019-03-06T16:00:34.977Z,15.20
2019-03-06T16:03:06.278Z,15.20
2019-03-06T16:05:35.561Z,15.10
2019-03-06T16:08:04.869Z,15.00
2019-03-06T16:10:33.590Z,14.90
2019-03-06T16:13:03.114Z,14.90
2019-03-06T16:15:31.868Z,13.50
2019-03-06T16:18:03.071Z,14.70
2019-03-06T16:20:31.829Z,14.50
2019-03-06T16:23:00.462Z,14.50
2019-03-06T16:25:36.273Z,14.40
2019-03-06T16:27:59.551Z,14.30
2019-03-06T16:30:29.575Z,14.20
2019-03-06T16:32:58.311Z,14.20
2019-03-06T16:35:27.843Z,14.10
2019-03-06T16:37:57.250Z,14.00
2019-03-06T16:40:26.745Z,14.00
2019-03-06T16:42:55.423Z,14.00
2019-03-06T16:45:25.704Z,14.00
2019-03-06T16:47:54.419Z,14.00
2019-03-06T16:50:24.053Z,13.90
2019-03-06T16:52:52.858Z,13.90
2019-03-06T16:55:22.834Z,13.80
2019-03-06T16:57:51.862Z,13.80
2019-03-06T17:00:27.124Z,13.80
2019-03-06T17:02:56.844Z,13.70
2019-03-06T17:05:25.767Z,13.70
2019-03-06T17:07:55.249Z,13.70
2019-03-06T17:10:26.050Z,17.30
2019-03-06T17:12:55.374Z,13.60
2019-03-06T17:15:25.442Z,13.60
2019-03-06T17:17:54.734Z,13.60
2019-03-06T17:22:53.840Z,13.60
2019-03-06T17:25:22.938Z,13.60
2019-03-06T17:27:51.996Z,13.60
2019-03-06T17:30:26.032Z,13.70
2019-03-06T17:32:58.018Z,13.70
2019-03-06T17:35:27.697Z,13.70
2019-03-06T17:37:56.795Z,13.70
2019-03-06T17:40:27.022Z,13.70
2019-03-06T17:42:56.024Z,13.70
2019-03-06T17:45:25.718Z,13.70
2019-03-06T17:47:54.753Z,13.80
2019-03-06T17:50:24.062Z,13.80
2019-03-06T17:52:53.294Z,13.80
2019-03-06T17:55:22.314Z,13.80
2019-03-06T17:57:51.320Z,13.80
2019-03-06T18:00:48.014Z,13.80
2019-03-06T18:03:18.394Z,13.80
2019-03-06T18:05:47.166Z,13.80
2019-03-06T18:08:16.225Z,13.80
2019-03-06T18:10:45.264Z,13.90
2019-03-06T18:13:14.058Z,13.90
2019-03-06T18:15:44.400Z,13.90
2019-03-06T18:18:12.946Z,13.90
2019-03-06T18:20:41.812Z,13.90
2019-03-06T18:23:10.411Z,13.80
2019-03-06T18:25:38.994Z,13.80
2019-03-06T18:28:07.999Z,13.80
2019-03-06T18:30:37.126Z,13.80
2019-03-06T18:33:05.836Z,13.70
2019-03-06T18:35:34.566Z,13.60
2019-03-06T18:38:03.184Z,13.70
2019-03-06T18:40:32.016Z,13.60
2019-03-06T18:43:01.160Z,13.60
2019-03-06T18:45:30.056Z,13.50
2019-03-06T18:47:58.993Z,13.60
2019-03-06T18:50:27.856Z,13.50
2019-03-06T18:52:56.462Z,13.50
2019-03-06T18:55:25.391Z,13.60
2019-03-06T18:57:54.271Z,13.50
2019-03-06T19:00:30.756Z,13.50
2019-03-06T19:02:59.791Z,13.50
2019-03-06T19:05:28.725Z,13.60
2019-03-06T19:07:57.608Z,13.50
2019-03-06T19:12:55.472Z,13.40
2019-03-06T19:15:26.457Z,13.40
2019-03-06T19:17:55.404Z,13.30
2019-03-06T19:20:24.599Z,13.30
2019-03-06T19:22:54.335Z,13.30
2019-03-06T19:25:23.910Z,13.20
2019-03-06T19:27:52.775Z,13.20
2019-03-06T19:30:25.571Z,13.10
2019-03-06T19:32:54.670Z,13.10
2019-03-06T19:35:49.496Z,13.10
2019-03-06T19:38:18.490Z,13.10
2019-03-06T19:40:47.408Z,13.10
2019-03-06T19:43:16.297Z,13.10
2019-03-06T19:45:45.297Z,13.10
2019-03-06T19:48:14.306Z,13.10
2019-03-06T19:50:43.193Z,13.10
2019-03-06T19:53:12.147Z,13.10
2019-03-06T19:55:41.011Z,13.10
2019-03-06T19:58:11.456Z,13.10
2019-03-06T20:00:40.626Z,13.10
2019-03-06T20:03:10.542Z,13.10
2019-03-06T20:05:40.394Z,13.10
2019-03-06T20:08:16.332Z,13.10
2019-03-06T20:10:45.851Z,13.10
2019-03-06T20:13:14.920Z,13.10
2019-03-06T20:15:44.047Z,13.00
2019-03-06T20:18:13.275Z,13.10
2019-03-06T20:20:42.455Z,13.10
2019-03-06T20:23:11.364Z,13.10
2019-03-06T20:25:40.351Z,13.10
2019-03-06T20:28:09.403Z,13.10
2019-03-06T20:30:38.332Z,13.20
2019-03-06T20:33:07.541Z,13.20
2019-03-06T20:35:36.497Z,13.10
2019-03-06T20:38:05.376Z,13.10
2019-03-06T20:40:34.240Z,13.10
2019-03-06T20:43:03.194Z,13.20
2019-03-06T20:45:32.068Z,13.10
2019-03-06T20:48:01.006Z,13.10
2019-03-06T20:52:58.530Z,13.20
2019-03-06T20:55:27.449Z,13.20
2019-03-06T20:57:56.547Z,13.20
2019-03-06T21:00:28.336Z,13.20
2019-03-06T21:02:57.190Z,13.20
2019-03-06T21:05:26.269Z,13.20
2019-03-06T21:07:55.386Z,13.30
2019-03-06T21:10:24.249Z,13.20
2019-03-06T21:12:53.385Z,13.20
2019-03-06T21:15:23.161Z,13.20
2019-03-06T21:17:52.006Z,13.20
2019-03-06T21:20:22.934Z,13.10
2019-03-06T21:22:51.956Z,13.20
2019-03-06T21:25:21.973Z,13.20
2019-03-06T21:27:51.141Z,13.20
2019-03-06T21:30:30.468Z,13.10
2019-03-06T21:32:59.390Z,13.10
2019-03-06T21:35:28.343Z,13.00
2019-03-06T21:37:57.252Z,13.00
2019-03-06T21:40:26.297Z,13.00
2019-03-06T21:42:55.234Z,13.10
2019-03-06T21:45:24.243Z,13.00
2019-03-06T21:47:53.127Z,13.00
2019-03-06T21:50:22.105Z,13.00
2019-03-06T21:52:50.957Z,13.00
2019-03-06T21:55:19.844Z,12.90
2019-03-06T21:57:49.005Z,13.00
2019-03-06T22:00:25.302Z,13.00
2019-03-06T22:02:54.170Z,13.00
2019-03-06T22:05:23.125Z,13.00
2019-03-06T22:07:51.991Z,13.00
2019-03-06T22:10:21.997Z,13.00
2019-03-06T22:12:51.047Z,13.00
2019-03-06T22:15:21.581Z,12.90
2019-03-06T22:17:50.524Z,13.00
2019-03-06T22:20:19.522Z,13.00
2019-03-06T22:22:48.443Z,13.00
2019-03-06T22:25:18.407Z,12.90
2019-03-06T22:27:47.360Z,12.90
2019-03-06T22:30:23.286Z,12.90
2019-03-06T22:32:52.176Z,12.90
2019-03-06T22:35:21.091Z,12.90
2019-03-06T22:37:50.182Z,12.80
2019-03-06T22:40:22.382Z,12.80
2019-03-06T22:42:51.249Z,12.90
2019-03-06T22:45:23.212Z,12.90
2019-03-06T22:47:52.101Z,12.90
2019-03-06T22:50:22.539Z,12.90
2019-03-06T22:52:51.745Z,12.90
2019-03-06T22:55:21.075Z,12.90
2019-03-06T22:57:49.956Z,13.00
2019-03-06T23:00:33.711Z,12.90
2019-03-06T23:03:02.590Z,12.90
2019-03-06T23:05:36.068Z,12.90
2019-03-06T23:08:05.072Z,12.90
2019-03-06T23:10:34.010Z,12.90
2019-03-06T23:13:02.935Z,12.90
2019-03-06T23:15:31.863Z,13.00
2019-03-06T23:18:00.773Z,13.00
2019-03-06T23:20:29.741Z,13.00
2019-03-06T23:22:58.599Z,13.10
2019-03-06T23:25:27.459Z,13.10
2019-03-06T23:27:56.384Z,13.10
2019-03-06T23:30:25.314Z,13.10
2019-03-06T23:32:54.158Z,13.10
2019-03-06T23:35:23.093Z,13.10
2019-03-06T23:37:51.918Z,13.20
2019-03-06T23:40:20.823Z,13.20
2019-03-06T23:42:49.692Z,13.20
2019-03-06T23:45:18.554Z,13.20
2019-03-06T23:47:47.589Z,13.10
2019-03-06T23:50:16.734Z,13.10
2019-03-06T23:53:05.760Z,13.10
2019-03-06T23:55:34.776Z,13.20
2019-03-06T23:58:03.644Z,13.10
